Rocky Hill, Texas
Current Conditions -  °F | °C
As of 10:55 PM on Thursday 20 Nov 2014 (Local Time) from KCNW Reporting Station
Broken Clouds Broken Clouds  
Wind Chill: 61°   Ceiling: 1200
Heat Index: 61°   Visibility: 10mi
Dew Point: 59°   Wind: 9mph
Humidity: 94%   Direction: 150°SSE
Pressure: 30.07"   Gusts: NA
Location:  31.3313°N, 96.8629°W
Report Text: KCNW 210455Z 15008KT 10SM BKN012 16/15 A3007
Loading
Personal Weather Stations






























Interactive Weather Map New forecast layout! Learn more

10-Day Weather Forecast

Advertisements
Track Severe Weather on mobile